sensor_id;sensor_type;location;lat;lon;timestamp;pressure;altitude;pressure_sealevel;temperature;humidity
39301;BME280;25019;42.626;23.380;2023-08-06T00:00:06;93360.09;;;19.81;100.00
39301;BME280;25019;42.626;23.380;2023-08-06T00:02:34;93271.03;;;19.19;100.00
39301;BME280;25019;42.626;23.380;2023-08-06T00:05:00;93355.59;;;19.72;100.00
39301;BME280;25019;42.626;23.380;2023-08-06T00:07:26;93351.13;;;19.76;100.00
39301;BME280;25019;42.626;23.380;2023-08-06T00:09:51;93344.34;;;19.70;100.00
39301;BME280;25019;42.626;23.380;2023-08-06T00:12:17;93275.75;;;19.00;100.00
39301;BME280;25019;42.626;23.380;2023-08-06T00:14:43;93350.91;;;19.48;100.00
39301;BME280;25019;42.626;23.380;2023-08-06T00:17:09;93333.09;;;19.35;100.00
39301;BME280;25019;42.626;23.380;2023-08-06T00:19:34;93351.38;;;19.29;100.00
39301;BME280;25019;42.626;23.380;2023-08-06T00:22:00;93333.72;;;19.19;100.00
39301;BME280;25019;42.626;23.380;2023-08-06T00:24:27;93321.88;;;19.11;100.00
39301;BME280;25019;42.626;23.380;2023-08-06T00:26:53;93338.00;;;19.20;100.00
39301;BME280;25019;42.626;23.380;2023-08-06T00:29:19;93260.44;;;18.71;100.00
39301;BME280;25019;42.626;23.380;2023-08-06T00:31:45;93253.03;;;18.68;100.00
39301;BME280;25019;42.626;23.380;2023-08-06T00:34:10;93341.59;;;19.03;100.00
39301;BME280;25019;42.626;23.380;2023-08-06T00:36:36;93322.53;;;18.87;100.00
39301;BME280;25019;42.626;23.380;2023-08-06T00:39:02;93322.25;;;18.80;100.00
39301;BME280;25019;42.626;23.380;2023-08-06T00:41:28;93321.19;;;18.72;100.00
39301;BME280;25019;42.626;23.380;2023-08-06T00:43:54;93263.16;;;18.41;100.00
39301;BME280;25019;42.626;23.380;2023-08-06T00:46:20;93319.25;;;18.81;100.00
39301;BME280;25019;42.626;23.380;2023-08-06T00:48:46;93318.91;;;18.83;100.00
39301;BME280;25019;42.626;23.380;2023-08-06T00:51:12;93299.16;;;18.79;100.00
39301;BME280;25019;42.626;23.380;2023-08-06T00:53:39;93304.91;;;18.68;100.00
39301;BME280;25019;42.626;23.380;2023-08-06T00:56:06;93291.44;;;18.68;100.00
39301;BME280;25019;42.626;23.380;2023-08-06T00:58:32;93304.66;;;18.82;100.00
39301;BME280;25019;42.626;23.380;2023-08-06T01:00:58;93303.22;;;18.85;100.00
39301;BME280;25019;42.626;23.380;2023-08-06T01:03:24;93283.84;;;18.70;100.00
39301;BME280;25019;42.626;23.380;2023-08-06T01:05:50;93286.88;;;18.69;100.00
39301;BME280;25019;42.626;23.380;2023-08-06T01:08:29;93235.50;;;18.40;100.00
39301;BME280;25019;42.626;23.380;2023-08-06T01:11:05;93275.28;;;18.77;100.00
39301;BME280;25019;42.626;23.380;2023-08-06T01:16:07;93267.56;;;18.97;100.00
39301;BME280;25019;42.626;23.380;2023-08-06T01:18:34;93233.00;;;18.56;100.00
39301;BME280;25019;42.626;23.380;2023-08-06T01:21:01;93265.00;;;18.79;100.00
39301;BME280;25019;42.626;23.380;2023-08-06T01:23:26;93264.28;;;18.91;100.00
39301;BME280;25019;42.626;23.380;2023-08-06T01:26:22;93256.03;;;18.87;100.00
39301;BME280;25019;42.626;23.380;2023-08-06T01:29:00;93257.56;;;18.97;100.00
39301;BME280;25019;42.626;23.380;2023-08-06T01:31:35;93160.50;;;18.26;100.00
39301;BME280;25019;42.626;23.380;2023-08-06T01:34:04;93184.41;;;18.40;100.00
39301;BME280;25019;42.626;23.380;2023-08-06T01:36:30;93154.53;;;18.21;100.00
39301;BME280;25019;42.626;23.380;2023-08-06T01:38:59;93257.91;;;18.96;100.00
39301;BME280;25019;42.626;23.380;2023-08-06T01:41:25;93246.97;;;19.01;100.00
39301;BME280;25019;42.626;23.380;2023-08-06T01:43:50;93248.66;;;19.06;100.00
39301;BME280;25019;42.626;23.380;2023-08-06T01:46:16;93249.78;;;19.05;100.00
39301;BME280;25019;42.626;23.380;2023-08-06T01:48:43;93246.66;;;18.94;100.00
39301;BME280;25019;42.626;23.380;2023-08-06T01:51:09;93240.31;;;18.98;100.00
39301;BME280;25019;42.626;23.380;2023-08-06T01:53:35;93134.31;;;18.23;100.00
39301;BME280;25019;42.626;23.380;2023-08-06T01:56:01;93237.41;;;18.82;100.00
39301;BME280;25019;42.626;23.380;2023-08-06T01:58:26;93244.38;;;18.83;100.00
39301;BME280;25019;42.626;23.380;2023-08-06T02:00:52;93242.66;;;18.79;100.00
39301;BME280;25019;42.626;23.380;2023-08-06T02:03:18;93247.59;;;18.77;100.00
39301;BME280;25019;42.626;23.380;2023-08-06T02:05:43;93235.59;;;18.74;100.00
39301;BME280;25019;42.626;23.380;2023-08-06T02:08:09;93238.69;;;18.85;100.00
39301;BME280;25019;42.626;23.380;2023-08-06T02:10:35;93215.25;;;18.85;100.00
39301;BME280;25019;42.626;23.380;2023-08-06T02:13:00;93233.06;;;18.99;100.00
39301;BME280;25019;42.626;23.380;2023-08-06T02:15:26;93236.00;;;19.06;100.00
39301;BME280;25019;42.626;23.380;2023-08-06T02:17:52;93230.41;;;19.11;100.00
39301;BME280;25019;42.626;23.380;2023-08-06T02:20:17;93173.56;;;18.79;100.00
39301;BME280;25019;42.626;23.380;2023-08-06T02:22:43;93245.22;;;19.17;100.00
39301;BME280;25019;42.626;23.380;2023-08-06T02:25:09;93210.28;;;18.96;100.00
39301;BME280;25019;42.626;23.380;2023-08-06T02:27:34;93186.81;;;18.63;100.00
39301;BME280;25019;42.626;23.380;2023-08-06T02:30:00;93269.72;;;19.04;100.00
39301;BME280;25019;42.626;23.380;2023-08-06T02:32:26;93242.47;;;18.84;100.00
39301;BME280;25019;42.626;23.380;2023-08-06T02:34:52;93236.03;;;18.55;100.00
39301;BME280;25019;42.626;23.380;2023-08-06T02:37:17;93196.19;;;17.97;100.00
39301;BME280;25019;42.626;23.380;2023-08-06T02:39:44;93272.00;;;18.41;100.00
39301;BME280;25019;42.626;23.380;2023-08-06T02:42:11;93294.06;;;18.56;100.00
39301;BME280;25019;42.626;23.380;2023-08-06T02:44:36;93272.63;;;18.68;100.00
39301;BME280;25019;42.626;23.380;2023-08-06T02:47:04;93272.78;;;18.72;100.00
39301;BME280;25019;42.626;23.380;2023-08-06T02:49:29;93252.69;;;18.69;100.00
39301;BME280;25019;42.626;23.380;2023-08-06T02:51:55;93196.75;;;18.41;100.00
39301;BME280;25019;42.626;23.380;2023-08-06T02:54:21;93238.75;;;18.76;100.00
39301;BME280;25019;42.626;23.380;2023-08-06T02:56:46;93235.31;;;18.67;100.00
39301;BME280;25019;42.626;23.380;2023-08-06T02:59:23;93246.00;;;18.54;100.00
39301;BME280;25019;42.626;23.380;2023-08-06T03:02:01;93210.28;;;17.94;100.00
39301;BME280;25019;42.626;23.380;2023-08-06T03:04:36;93257.56;;;18.25;100.00
39301;BME280;25019;42.626;23.380;2023-08-06T03:07:02;93198.81;;;18.15;100.00
39301;BME280;25019;42.626;23.380;2023-08-06T03:09:36;93208.59;;;18.19;100.00
39301;BME280;25019;42.626;23.380;2023-08-06T03:12:02;93164.75;;;18.06;100.00
39301;BME280;25019;42.626;23.380;2023-08-06T03:14:28;93126.94;;;17.51;100.00
39301;BME280;25019;42.626;23.380;2023-08-06T03:16:53;93252.84;;;18.22;100.00
39301;BME280;25019;42.626;23.380;2023-08-06T03:19:19;93172.13;;;17.79;100.00
39301;BME280;25019;42.626;23.380;2023-08-06T03:21:45;93215.38;;;18.25;100.00
39301;BME280;25019;42.626;23.380;2023-08-06T03:24:13;93197.81;;;18.28;100.00
39301;BME280;25019;42.626;23.380;2023-08-06T03:26:39;93235.25;;;18.33;100.00
39301;BME280;25019;42.626;23.380;2023-08-06T03:29:05;93248.97;;;18.32;100.00
39301;BME280;25019;42.626;23.380;2023-08-06T03:31:33;93252.13;;;18.34;100.00
39301;BME280;25019;42.626;23.380;2023-08-06T03:33:59;93253.25;;;18.33;100.00
39301;BME280;25019;42.626;23.380;2023-08-06T03:36:27;93236.16;;;18.37;100.00
39301;BME280;25019;42.626;23.380;2023-08-06T03:38:53;93229.06;;;18.33;100.00
39301;BME280;25019;42.626;23.380;2023-08-06T03:41:19;93241.91;;;18.27;100.00
39301;BME280;25019;42.626;23.380;2023-08-06T03:43:45;93243.78;;;18.26;100.00
39301;BME280;25019;42.626;23.380;2023-08-06T03:46:17;93242.38;;;18.29;100.00
39301;BME280;25019;42.626;23.380;2023-08-06T03:48:43;93263.16;;;18.41;100.00
39301;BME280;25019;42.626;23.380;2023-08-06T03:51:09;93257.47;;;18.42;100.00
39301;BME280;25019;42.626;23.380;2023-08-06T03:53:36;93256.34;;;18.44;100.00
39301;BME280;25019;42.626;23.380;2023-08-06T03:56:02;93266.72;;;18.54;100.00
39301;BME280;25019;42.626;23.380;2023-08-06T03:58:29;93232.78;;;18.19;100.00
39301;BME280;25019;42.626;23.380;2023-08-06T04:01:02;93298.53;;;18.52;100.00
39301;BME280;25019;42.626;23.380;2023-08-06T04:03:34;93301.03;;;18.57;100.00
39301;BME280;25019;42.626;23.380;2023-08-06T04:06:02;93246.06;;;18.16;100.00
39301;BME280;25019;42.626;23.380;2023-08-06T04:08:28;93294.06;;;18.56;100.00
39301;BME280;25019;42.626;23.380;2023-08-06T04:10:54;93275.38;;;18.60;100.00
39301;BME280;25019;42.626;23.380;2023-08-06T04:13:20;93254.69;;;18.60;100.00
39301;BME280;25019;42.626;23.380;2023-08-06T04:15:46;93210.78;;;18.26;100.00
39301;BME280;25019;42.626;23.380;2023-08-06T04:18:12;93197.34;;;18.26;100.00
39301;BME280;25019;42.626;23.380;2023-08-06T04:20:47;93254.50;;;18.65;100.00
39301;BME280;25019;42.626;23.380;2023-08-06T04:23:14;93254.28;;;18.70;100.00
39301;BME280;25019;42.626;23.380;2023-08-06T04:25:41;93165.97;;;18.09;100.00
39301;BME280;25019;42.626;23.380;2023-08-06T04:28:07;93260.56;;;18.75;100.00
39301;BME280;25019;42.626;23.380;2023-08-06T04:30:33;93253.88;;;18.81;100.00
39301;BME280;25019;42.626;23.380;2023-08-06T04:33:00;93121.16;;;18.01;100.00
39301;BME280;25019;42.626;23.380;2023-08-06T04:35:26;93175.47;;;18.36;100.00
39301;BME280;25019;42.626;23.380;2023-08-06T04:37:52;93236.00;;;18.85;100.00
39301;BME280;25019;42.626;23.380;2023-08-06T04:40:18;93232.50;;;18.84;100.00
39301;BME280;25019;42.626;23.380;2023-08-06T04:42:44;93224.19;;;18.77;100.00
39301;BME280;25019;42.626;23.380;2023-08-06T04:45:10;93196.19;;;18.57;100.00
39301;BME280;25019;42.626;23.380;2023-08-06T04:47:36;93212.91;;;18.84;100.00
39301;BME280;25019;42.626;23.380;2023-08-06T04:50:01;93190.84;;;18.69;100.00
39301;BME280;25019;42.626;23.380;2023-08-06T04:52:27;93143.34;;;18.40;100.00
39301;BME280;25019;42.626;23.380;2023-08-06T04:54:56;93187.13;;;18.83;100.00
39301;BME280;25019;42.626;23.380;2023-08-06T04:57:21;93181.47;;;18.76;100.00
39301;BME280;25019;42.626;23.380;2023-08-06T04:59:47;93172.38;;;18.68;100.00
39301;BME280;25019;42.626;23.380;2023-08-06T05:02:13;93190.38;;;18.89;100.00
39301;BME280;25019;42.626;23.380;2023-08-06T05:04:38;93199.50;;;18.96;100.00
39301;BME280;25019;42.626;23.380;2023-08-06T05:07:05;93190.59;;;19.05;100.00
39301;BME280;25019;42.626;23.380;2023-08-06T05:09:31;93163.47;;;19.10;100.00
39301;BME280;25019;42.626;23.380;2023-08-06T05:11:56;93139.78;;;19.74;100.00
39301;BME280;25019;42.626;23.380;2023-08-06T05:14:22;93208.09;;;20.69;100.00
39301;BME280;25019;42.626;23.380;2023-08-06T05:16:48;93208.28;;;20.88;100.00
39301;BME280;25019;42.626;23.380;2023-08-06T05:19:13;93214.56;;;21.21;100.00
39301;BME280;25019;42.626;23.380;2023-08-06T05:21:39;93199.50;;;20.91;100.00
39301;BME280;25019;42.626;23.380;2023-08-06T05:24:05;93199.41;;;20.75;100.00
39301;BME280;25019;42.626;23.380;2023-08-06T05:26:30;93201.81;;;20.64;100.00
39301;BME280;25019;42.626;23.380;2023-08-06T05:28:56;93197.28;;;20.81;100.00
39301;BME280;25019;42.626;23.380;2023-08-06T05:31:21;93093.72;;;20.16;100.00
39301;BME280;25019;42.626;23.380;2023-08-06T05:33:47;93211.00;;;21.17;100.00
39301;BME280;25019;42.626;23.380;2023-08-06T05:36:12;93196.47;;;21.21;100.00
39301;BME280;25019;42.626;23.380;2023-08-06T05:38:38;93199.38;;;21.29;100.00
39301;BME280;25019;42.626;23.380;2023-08-06T05:41:04;93155.22;;;20.92;100.00
39301;BME280;25019;42.626;23.380;2023-08-06T05:43:30;93188.84;;;21.11;100.00
39301;BME280;25019;42.626;23.380;2023-08-06T05:45:56;93190.91;;;21.30;100.00
39301;BME280;25019;42.626;23.380;2023-08-06T05:48:22;93173.69;;;21.51;100.00
39301;BME280;25019;42.626;23.380;2023-08-06T05:50:51;93189.06;;;21.95;100.00
39301;BME280;25019;42.626;23.380;2023-08-06T05:53:17;93151.75;;;21.52;100.00
39301;BME280;25019;42.626;23.380;2023-08-06T05:55:43;93195.34;;;21.83;100.00
39301;BME280;25019;42.626;23.380;2023-08-06T05:58:08;93188.72;;;21.80;100.00
39301;BME280;25019;42.626;23.380;2023-08-06T06:00:34;93166.56;;;21.75;100.00
39301;BME280;25019;42.626;23.380;2023-08-06T06:03:00;93199.84;;;22.11;100.00
39301;BME280;25019;42.626;23.380;2023-08-06T06:05:26;93193.91;;;22.37;100.00
39301;BME280;25019;42.626;23.380;2023-08-06T06:07:51;93200.19;;;22.77;100.00
39301;BME280;25019;42.626;23.380;2023-08-06T06:10:17;93206.59;;;22.88;100.00
39301;BME280;25019;42.626;23.380;2023-08-06T06:12:42;93218.47;;;22.84;100.00
39301;BME280;25019;42.626;23.380;2023-08-06T06:15:08;93220.84;;;22.85;100.00
39301;BME280;25019;42.626;23.380;2023-08-06T06:17:34;93230.72;;;22.78;100.00
39301;BME280;25019;42.626;23.380;2023-08-06T06:20:00;93236.06;;;22.74;100.00
39301;BME280;25019;42.626;23.380;2023-08-06T06:22:25;93236.88;;;22.58;100.00
39301;BME280;25019;42.626;23.380;2023-08-06T06:24:51;93238.56;;;22.47;100.00
39301;BME280;25019;42.626;23.380;2023-08-06T06:27:17;93236.72;;;22.35;100.00
39301;BME280;25019;42.626;23.380;2023-08-06T06:29:42;93241.00;;;22.36;100.00
39301;BME280;25019;42.626;23.380;2023-08-06T06:32:08;93250.00;;;22.24;100.00
39301;BME280;25019;42.626;23.380;2023-08-06T06:34:33;93261.25;;;22.10;100.00
39301;BME280;25019;42.626;23.380;2023-08-06T06:36:59;93201.69;;;21.59;100.00
39301;BME280;25019;42.626;23.380;2023-08-06T06:39:25;93265.97;;;21.97;100.00
39301;BME280;25019;42.626;23.380;2023-08-06T06:41:51;93271.09;;;22.03;100.00
39301;BME280;25019;42.626;23.380;2023-08-06T06:44:24;93269.72;;;22.09;100.00
39301;BME280;25019;42.626;23.380;2023-08-06T06:46:49;93277.94;;;22.12;100.00
39301;BME280;25019;42.626;23.380;2023-08-06T06:49:15;93280.25;;;22.30;100.00
39301;BME280;25019;42.626;23.380;2023-08-06T06:51:40;93292.69;;;22.47;100.00
39301;BME280;25019;42.626;23.380;2023-08-06T06:54:06;93287.50;;;22.42;100.00
39301;BME280;25019;42.626;23.380;2023-08-06T06:56:32;93289.06;;;22.59;100.00
39301;BME280;25019;42.626;23.380;2023-08-06T06:58:57;93269.63;;;22.37;100.00
39301;BME280;25019;42.626;23.380;2023-08-06T07:01:23;93290.38;;;22.01;100.00
39301;BME280;25019;42.626;23.380;2023-08-06T07:03:48;93296.56;;;21.85;100.00
39301;BME280;25019;42.626;23.380;2023-08-06T07:06:14;93296.44;;;21.82;100.00
39301;BME280;25019;42.626;23.380;2023-08-06T07:08:41;93297.59;;;21.81;100.00
39301;BME280;25019;42.626;23.380;2023-08-06T07:11:06;93294.06;;;21.64;100.00
39301;BME280;25019;42.626;23.380;2023-08-06T07:13:33;93306.66;;;21.60;100.00
39301;BME280;25019;42.626;23.380;2023-08-06T07:15:59;93237.66;;;21.18;100.00
39301;BME280;25019;42.626;23.380;2023-08-06T07:18:24;93300.25;;;21.36;100.00
39301;BME280;25019;42.626;23.380;2023-08-06T07:20:51;93282.91;;;21.37;100.00
39301;BME280;25019;42.626;23.380;2023-08-06T07:23:18;93288.91;;;21.31;100.00
39301;BME280;25019;42.626;23.380;2023-08-06T07:25:43;93288.59;;;21.48;100.00
39301;BME280;25019;42.626;23.380;2023-08-06T07:28:11;93291.09;;;21.41;100.00
39301;BME280;25019;42.626;23.380;2023-08-06T07:30:40;93274.97;;;21.29;100.00
39301;BME280;25019;42.626;23.380;2023-08-06T07:33:06;93246.72;;;21.26;100.00
39301;BME280;25019;42.626;23.380;2023-08-06T07:35:32;93289.13;;;21.54;100.00
39301;BME280;25019;42.626;23.380;2023-08-06T07:37:58;93301.25;;;21.73;100.00
39301;BME280;25019;42.626;23.380;2023-08-06T07:40:24;93294.63;;;21.86;100.00
39301;BME280;25019;42.626;23.380;2023-08-06T07:42:49;93300.13;;;21.90;98.35
39301;BME280;25019;42.626;23.380;2023-08-06T07:45:15;93293.69;;;21.94;99.94
39301;BME280;25019;42.626;23.380;2023-08-06T07:47:40;93289.59;;;21.84;96.29
39301;BME280;25019;42.626;23.380;2023-08-06T07:50:07;93295.13;;;21.76;96.02
39301;BME280;25019;42.626;23.380;2023-08-06T07:52:32;93297.28;;;21.98;97.34
39301;BME280;25019;42.626;23.380;2023-08-06T07:54:58;93296.47;;;21.98;96.65
39301;BME280;25019;42.626;23.380;2023-08-06T07:57:24;93299.00;;;21.91;96.31
39301;BME280;25019;42.626;23.380;2023-08-06T07:59:49;93305.81;;;21.84;97.64
39301;BME280;25019;42.626;23.380;2023-08-06T08:02:16;93290.78;;;21.71;98.65
39301;BME280;25019;42.626;23.380;2023-08-06T08:04:41;93290.09;;;21.74;100.00
39301;BME280;25019;42.626;23.380;2023-08-06T08:07:09;93276.81;;;21.69;97.33
39301;BME280;25019;42.626;23.380;2023-08-06T08:09:35;93288.69;;;21.80;99.03
39301;BME280;25019;42.626;23.380;2023-08-06T08:12:01;93275.38;;;21.88;94.86
39301;BME280;25019;42.626;23.380;2023-08-06T08:14:28;93287.41;;;22.06;94.45
39301;BME280;25019;42.626;23.380;2023-08-06T08:16:54;93241.69;;;21.69;95.05
39301;BME280;25019;42.626;23.380;2023-08-06T08:19:20;93296.84;;;22.12;94.97
39301;BME280;25019;42.626;23.380;2023-08-06T08:21:46;93288.75;;;22.12;94.28
39301;BME280;25019;42.626;23.380;2023-08-06T08:24:12;93288.81;;;22.16;93.20
39301;BME280;25019;42.626;23.380;2023-08-06T08:26:37;93296.41;;;22.10;90.69
39301;BME280;25019;42.626;23.380;2023-08-06T08:29:03;93296.16;;;21.99;91.75
39301;BME280;25019;42.626;23.380;2023-08-06T08:31:28;93301.00;;;22.10;93.15
39301;BME280;25019;42.626;23.380;2023-08-06T08:33:55;93299.00;;;22.23;94.07
39301;BME280;25019;42.626;23.380;2023-08-06T08:36:21;93284.91;;;22.45;91.71
39301;BME280;25019;42.626;23.380;2023-08-06T08:38:46;93294.22;;;22.64;92.46
39301;BME280;25019;42.626;23.380;2023-08-06T08:41:12;93287.13;;;22.75;90.80
39301;BME280;25019;42.626;23.380;2023-08-06T08:43:39;93280.47;;;22.89;88.27
39301;BME280;25019;42.626;23.380;2023-08-06T08:46:08;93284.03;;;22.93;86.50
39301;BME280;25019;42.626;23.380;2023-08-06T08:48:34;93280.72;;;22.84;85.13
39301;BME280;25019;42.626;23.380;2023-08-06T08:51:00;93271.69;;;22.76;84.84
39301;BME280;25019;42.626;23.380;2023-08-06T08:53:27;93275.78;;;22.70;85.43
39301;BME280;25019;42.626;23.380;2023-08-06T08:55:54;93285.41;;;22.67;86.38
39301;BME280;25019;42.626;23.380;2023-08-06T08:58:20;93191.47;;;22.16;88.05
39301;BME280;25019;42.626;23.380;2023-08-06T09:00:46;93260.88;;;22.60;87.53
39301;BME280;25019;42.626;23.380;2023-08-06T09:03:14;93270.03;;;22.71;87.02
39301;BME280;25019;42.626;23.380;2023-08-06T09:05:44;93177.81;;;21.93;86.94
39301;BME280;25019;42.626;23.380;2023-08-06T09:08:11;93272.00;;;22.74;87.19
39301;BME280;25019;42.626;23.380;2023-08-06T09:10:40;93172.56;;;22.16;87.89
39301;BME280;25019;42.626;23.380;2023-08-06T09:13:07;93261.50;;;22.89;92.01
39301;BME280;25019;42.626;23.380;2023-08-06T09:15:34;93262.09;;;22.98;87.27
39301;BME280;25019;42.626;23.380;2023-08-06T09:17:59;93261.53;;;23.09;84.27
39301;BME280;25019;42.626;23.380;2023-08-06T09:20:25;93248.66;;;23.22;83.33
39301;BME280;25019;42.626;23.380;2023-08-06T09:22:54;93253.44;;;23.28;82.11
39301;BME280;25019;42.626;23.380;2023-08-06T09:25:23;93254.44;;;23.40;81.84
39301;BME280;25019;42.626;23.380;2023-08-06T09:27:50;93255.72;;;23.46;81.22
39301;BME280;25019;42.626;23.380;2023-08-06T09:30:31;93247.22;;;23.47;83.12
39301;BME280;25019;42.626;23.380;2023-08-06T09:32:57;93155.25;;;22.92;80.18
39301;BME280;25019;42.626;23.380;2023-08-06T09:35:22;93247.66;;;23.49;80.40
39301;BME280;25019;42.626;23.380;2023-08-06T09:37:48;93251.41;;;23.64;79.38
39301;BME280;25019;42.626;23.380;2023-08-06T09:40:27;93231.84;;;23.75;78.62
39301;BME280;25019;42.626;23.380;2023-08-06T09:42:53;93233.34;;;23.96;76.76
39301;BME280;25019;42.626;23.380;2023-08-06T09:45:20;93235.13;;;24.07;71.25
39301;BME280;25019;42.626;23.380;2023-08-06T09:47:50;93244.72;;;24.24;71.70
39301;BME280;25019;42.626;23.380;2023-08-06T09:50:19;93239.00;;;24.57;71.71
39301;BME280;25019;42.626;23.380;2023-08-06T09:52:47;93242.56;;;24.88;68.38
39301;BME280;25019;42.626;23.380;2023-08-06T09:55:13;93159.34;;;24.72;68.28
39301;BME280;25019;42.626;23.380;2023-08-06T09:57:43;93236.56;;;25.36;65.84
39301;BME280;25019;42.626;23.380;2023-08-06T10:00:09;93242.25;;;25.57;64.57
39301;BME280;25019;42.626;23.380;2023-08-06T10:02:39;93244.34;;;25.71;64.15
39301;BME280;25019;42.626;23.380;2023-08-06T10:05:07;93241.38;;;25.87;63.16
39301;BME280;25019;42.626;23.380;2023-08-06T10:07:33;93252.50;;;26.13;62.17
39301;BME280;25019;42.626;23.380;2023-08-06T10:09:59;93185.88;;;25.96;61.09
39301;BME280;25019;42.626;23.380;2023-08-06T10:12:26;93249.31;;;26.52;58.79
39301;BME280;25019;42.626;23.380;2023-08-06T10:14:55;93247.53;;;26.78;59.33
39301;BME280;25019;42.626;23.380;2023-08-06T10:17:23;93255.03;;;26.40;60.53
39301;BME280;25019;42.626;23.380;2023-08-06T10:19:50;93257.91;;;26.58;60.01
39301;BME280;25019;42.626;23.380;2023-08-06T10:22:18;93252.69;;;26.90;57.84
39301;BME280;25019;42.626;23.380;2023-08-06T10:24:51;93212.66;;;26.39;56.82
39301;BME280;25019;42.626;23.380;2023-08-06T10:27:29;93210.41;;;26.03;57.67
39301;BME280;25019;42.626;23.380;2023-08-06T10:33:00;93265.13;;;26.36;58.28
39301;BME280;25019;42.626;23.380;2023-08-06T10:38:12;93269.81;;;25.97;58.99
39301;BME280;25019;42.626;23.380;2023-08-06T10:40:41;93266.72;;;25.61;60.67
39301;BME280;25019;42.626;23.380;2023-08-06T10:43:07;93273.53;;;25.44;60.11
39301;BME280;25019;42.626;23.380;2023-08-06T10:45:37;93280.47;;;25.41;60.19
39301;BME280;25019;42.626;23.380;2023-08-06T10:48:04;93266.94;;;25.15;60.18
39301;BME280;25019;42.626;23.380;2023-08-06T10:50:30;93285.00;;;25.00;61.01
39301;BME280;25019;42.626;23.380;2023-08-06T10:52:57;93282.28;;;24.73;62.45
39301;BME280;25019;42.626;23.380;2023-08-06T10:55:24;93289.31;;;24.77;62.92
39301;BME280;25019;42.626;23.380;2023-08-06T10:57:51;93288.44;;;24.96;61.91
39301;BME280;25019;42.626;23.380;2023-08-06T11:00:16;93291.53;;;24.95;60.58
39301;BME280;25019;42.626;23.380;2023-08-06T11:02:42;93297.53;;;25.08;61.05
39301;BME280;25019;42.626;23.380;2023-08-06T11:05:10;93305.88;;;25.26;60.05
39301;BME280;25019;42.626;23.380;2023-08-06T11:07:36;93301.34;;;25.34;60.24
39301;BME280;25019;42.626;23.380;2023-08-06T11:10:06;93300.75;;;25.48;59.94
39301;BME280;25019;42.626;23.380;2023-08-06T11:12:33;93300.38;;;25.83;58.95
39301;BME280;25019;42.626;23.380;2023-08-06T11:14:59;93300.22;;;26.07;57.76
39301;BME280;25019;42.626;23.380;2023-08-06T11:17:27;93287.00;;;26.05;58.94
39301;BME280;25019;42.626;23.380;2023-08-06T11:19:53;93298.81;;;26.20;59.17
39301;BME280;25019;42.626;23.380;2023-08-06T11:22:21;93303.50;;;26.23;60.16
39301;BME280;25019;42.626;23.380;2023-08-06T11:24:50;93312.88;;;26.74;57.82
39301;BME280;25019;42.626;23.380;2023-08-06T11:27:17;93319.78;;;27.13;56.07
39301;BME280;25019;42.626;23.380;2023-08-06T11:29:44;93317.69;;;26.92;57.80
39301;BME280;25019;42.626;23.380;2023-08-06T11:32:10;93308.81;;;26.54;57.38
39301;BME280;25019;42.626;23.380;2023-08-06T11:34:36;93299.00;;;26.00;55.83
39301;BME280;25019;42.626;23.380;2023-08-06T11:37:03;93314.72;;;25.80;55.94
39301;BME280;25019;42.626;23.380;2023-08-06T11:39:37;93310.31;;;25.68;55.50
39301;BME280;25019;42.626;23.380;2023-08-06T11:42:05;93320.53;;;25.18;55.87
39301;BME280;25019;42.626;23.380;2023-08-06T11:44:33;93285.94;;;24.34;57.52
39301;BME280;25019;42.626;23.380;2023-08-06T11:47:01;93312.25;;;24.33;59.39
39301;BME280;25019;42.626;23.380;2023-08-06T11:49:57;93317.56;;;24.03;61.34
39301;BME280;25019;42.626;23.380;2023-08-06T11:52:24;93299.91;;;23.70;61.86
39301;BME280;25019;42.626;23.380;2023-08-06T11:57:32;93309.13;;;23.65;63.39
39301;BME280;25019;42.626;23.380;2023-08-06T12:00:04;93317.66;;;23.67;66.66
39301;BME280;25019;42.626;23.380;2023-08-06T12:02:42;93310.75;;;23.70;67.37
39301;BME280;25019;42.626;23.380;2023-08-06T12:07:45;93217.22;;;23.17;67.20
39301;BME280;25019;42.626;23.380;2023-08-06T12:10:12;93316.31;;;23.77;66.15
39301;BME280;25019;42.626;23.380;2023-08-06T12:12:38;93270.41;;;23.25;66.36
39301;BME280;25019;42.626;23.380;2023-08-06T12:15:04;93307.81;;;23.59;65.50
39301;BME280;25019;42.626;23.380;2023-08-06T12:17:32;93298.03;;;23.74;65.90
39301;BME280;25019;42.626;23.380;2023-08-06T12:19:57;93290.25;;;23.92;66.35
39301;BME280;25019;42.626;23.380;2023-08-06T12:22:23;93300.91;;;24.24;63.45
39301;BME280;25019;42.626;23.380;2023-08-06T12:24:49;93295.50;;;24.51;62.37
39301;BME280;25019;42.626;23.380;2023-08-06T12:27:15;93298.19;;;24.74;61.59
39301;BME280;25019;42.626;23.380;2023-08-06T12:29:45;93302.56;;;24.79;61.48
39301;BME280;25019;42.626;23.380;2023-08-06T12:32:11;93294.88;;;24.85;61.40
39301;BME280;25019;42.626;23.380;2023-08-06T12:34:41;93297.84;;;24.76;62.20
39301;BME280;25019;42.626;23.380;2023-08-06T12:37:07;93305.09;;;24.95;62.96
39301;BME280;25019;42.626;23.380;2023-08-06T12:39:34;93259.03;;;24.75;62.45
39301;BME280;25019;42.626;23.380;2023-08-06T12:42:00;93317.44;;;25.19;63.03
39301;BME280;25019;42.626;23.380;2023-08-06T12:44:26;93299.91;;;25.13;62.13
39301;BME280;25019;42.626;23.380;2023-08-06T12:46:53;93289.63;;;24.99;61.44
39301;BME280;25019;42.626;23.380;2023-08-06T12:49:19;93306.13;;;25.13;62.25
39301;BME280;25019;42.626;23.380;2023-08-06T12:51:47;93302.06;;;25.31;61.80
39301;BME280;25019;42.626;23.380;2023-08-06T12:54:13;93300.94;;;25.32;61.93